sensor_id;sensor_type;location;lat;lon;timestamp;pressure;altitude;pressure_sealevel;temperature;humidity
41706;BME280;27385;51.096;17.190;2022-11-15T00:00:03;100472.06;;;4.22;94.42
41706;BME280;27385;51.096;17.190;2022-11-15T00:02:55;100465.67;;;4.23;94.55
41706;BME280;27385;51.096;17.190;2022-11-15T00:05:26;100460.41;;;4.21;94.49
41706;BME280;27385;51.096;17.190;2022-11-15T00:07:58;100461.94;;;4.20;94.47
41706;BME280;27385;51.096;17.190;2022-11-15T00:10:30;100455.52;;;4.17;94.29
41706;BME280;27385;51.096;17.190;2022-11-15T00:13:03;100453.14;;;4.11;94.10
41706;BME280;27385;51.096;17.190;2022-11-15T00:15:36;100440.09;;;4.09;94.38
41706;BME280;27385;51.096;17.190;2022-11-15T00:18:13;100440.34;;;4.08;94.30
41706;BME280;27385;51.096;17.190;2022-11-15T00:20:45;100439.19;;;4.07;94.45
41706;BME280;27385;51.096;17.190;2022-11-15T00:23:17;100435.34;;;4.06;94.38
41706;BME280;27385;51.096;17.190;2022-11-15T00:25:51;100435.04;;;4.05;94.33
41706;BME280;27385;51.096;17.190;2022-11-15T00:28:25;100440.19;;;4.01;94.28
41706;BME280;27385;51.096;17.190;2022-11-15T00:31:01;100436.36;;;3.96;94.22
41706;BME280;27385;51.096;17.190;2022-11-15T00:33:33;100439.70;;;3.92;94.45
41706;BME280;27385;51.096;17.190;2022-11-15T00:36:08;100436.23;;;3.91;94.69
41706;BME280;27385;51.096;17.190;2022-11-15T00:38:42;100429.04;;;3.92;94.66
41706;BME280;27385;51.096;17.190;2022-11-15T00:41:13;100422.30;;;3.93;94.56
41706;BME280;27385;51.096;17.190;2022-11-15T00:43:45;100419.14;;;3.93;94.42
41706;BME280;27385;51.096;17.190;2022-11-15T00:46:17;100418.07;;;3.92;94.15
41706;BME280;27385;51.096;17.190;2022-11-15T00:48:48;100421.20;;;3.89;94.15
41706;BME280;27385;51.096;17.190;2022-11-15T00:51:19;100420.83;;;3.86;94.15
41706;BME280;27385;51.096;17.190;2022-11-15T00:57:03;100415.55;;;3.77;94.12
41706;BME280;27385;51.096;17.190;2022-11-15T00:59:35;100414.45;;;3.77;94.23
41706;BME280;27385;51.096;17.190;2022-11-15T01:02:09;100412.34;;;3.77;94.18
41706;BME280;27385;51.096;17.190;2022-11-15T01:04:40;100410.46;;;3.76;94.13
41706;BME280;27385;51.096;17.190;2022-11-15T01:07:12;100413.16;;;3.76;93.98
41706;BME280;27385;51.096;17.190;2022-11-15T01:09:44;100408.44;;;3.75;93.96
41706;BME280;27385;51.096;17.190;2022-11-15T01:12:15;100411.88;;;3.73;93.63
41706;BME280;27385;51.096;17.190;2022-11-15T01:14:47;100411.23;;;3.70;93.68
41706;BME280;27385;51.096;17.190;2022-11-15T01:17:18;100408.73;;;3.69;93.71
41706;BME280;27385;51.096;17.190;2022-11-15T01:19:49;100408.92;;;3.68;93.76
41706;BME280;27385;51.096;17.190;2022-11-15T01:22:21;100406.78;;;3.68;93.63
41706;BME280;27385;51.096;17.190;2022-11-15T01:24:53;100405.23;;;3.67;93.69
41706;BME280;27385;51.096;17.190;2022-11-15T01:27:24;100400.47;;;3.64;93.57
41706;BME280;27385;51.096;17.190;2022-11-15T01:29:56;100401.42;;;3.61;93.48
41706;BME280;27385;51.096;17.190;2022-11-15T01:32:27;100409.05;;;3.58;93.44
41706;BME280;27385;51.096;17.190;2022-11-15T01:34:58;100404.78;;;3.55;93.56
41706;BME280;27385;51.096;17.190;2022-11-15T01:37:29;100404.02;;;3.46;93.65
41706;BME280;27385;51.096;17.190;2022-11-15T01:40:01;100403.88;;;3.42;94.02
41706;BME280;27385;51.096;17.190;2022-11-15T01:42:33;100395.06;;;3.42;94.12
41706;BME280;27385;51.096;17.190;2022-11-15T01:45:05;100383.70;;;3.41;93.85
41706;BME280;27385;51.096;17.190;2022-11-15T01:47:39;100383.05;;;3.38;93.78
41706;BME280;27385;51.096;17.190;2022-11-15T01:50:13;100375.99;;;3.37;93.61
41706;BME280;27385;51.096;17.190;2022-11-15T01:52:47;100373.49;;;3.36;93.61
41706;BME280;27385;51.096;17.190;2022-11-15T01:55:21;100374.61;;;3.35;93.75
41706;BME280;27385;51.096;17.190;2022-11-15T01:57:55;100366.27;;;3.35;93.59
41706;BME280;27385;51.096;17.190;2022-11-15T02:00:29;100363.79;;;3.33;93.62
41706;BME280;27385;51.096;17.190;2022-11-15T02:03:01;100360.82;;;3.31;93.49
41706;BME280;27385;51.096;17.190;2022-11-15T02:05:34;100363.38;;;3.29;93.37
41706;BME280;27385;51.096;17.190;2022-11-15T02:08:08;100360.66;;;3.27;93.46
41706;BME280;27385;51.096;17.190;2022-11-15T02:10:49;100360.13;;;3.23;93.26
41706;BME280;27385;51.096;17.190;2022-11-15T02:13:20;100358.20;;;3.21;93.49
41706;BME280;27385;51.096;17.190;2022-11-15T02:16:01;100351.57;;;3.21;93.49
41706;BME280;27385;51.096;17.190;2022-11-15T02:18:35;100350.93;;;3.18;93.22
41706;BME280;27385;51.096;17.190;2022-11-15T02:21:20;100341.83;;;3.16;93.47
41706;BME280;27385;51.096;17.190;2022-11-15T02:27:42;100335.83;;;3.13;93.21
41706;BME280;27385;51.096;17.190;2022-11-15T02:30:25;100335.02;;;3.10;93.20
41706;BME280;27385;51.096;17.190;2022-11-15T02:33:03;100334.70;;;3.07;92.83
41706;BME280;27385;51.096;17.190;2022-11-15T02:35:42;100336.73;;;3.04;92.87
41706;BME280;27385;51.096;17.190;2022-11-15T02:38:20;100334.81;;;3.01;92.82
41706;BME280;27385;51.096;17.190;2022-11-15T02:40:56;100332.91;;;2.98;92.75
41706;BME280;27385;51.096;17.190;2022-11-15T02:43:33;100326.55;;;2.98;92.92
41706;BME280;27385;51.096;17.190;2022-11-15T02:46:38;100325.88;;;2.95;92.61
41706;BME280;27385;51.096;17.190;2022-11-15T02:49:33;100320.50;;;2.92;92.64
41706;BME280;27385;51.096;17.190;2022-11-15T02:52:05;100319.45;;;2.90;92.37
41706;BME280;27385;51.096;17.190;2022-11-15T02:54:36;100316.64;;;2.85;92.25
41706;BME280;27385;51.096;17.190;2022-11-15T02:57:18;100317.69;;;2.80;92.31
41706;BME280;27385;51.096;17.190;2022-11-15T03:00:11;100311.48;;;2.76;92.45
41706;BME280;27385;51.096;17.190;2022-11-15T03:02:59;100303.90;;;2.68;92.40
41706;BME280;27385;51.096;17.190;2022-11-15T03:05:40;100302.76;;;2.67;92.60
41706;BME280;27385;51.096;17.190;2022-11-15T03:08:19;100300.48;;;2.65;92.34
41706;BME280;27385;51.096;17.190;2022-11-15T03:11:03;100302.69;;;2.62;92.15
41706;BME280;27385;51.096;17.190;2022-11-15T03:13:38;100301.27;;;2.59;92.03
41706;BME280;27385;51.096;17.190;2022-11-15T03:16:14;100304.05;;;2.56;92.03
41706;BME280;27385;51.096;17.190;2022-11-15T03:18:52;100298.68;;;2.53;92.00
41706;BME280;27385;51.096;17.190;2022-11-15T03:21:25;100299.63;;;2.53;92.19
41706;BME280;27385;51.096;17.190;2022-11-15T03:24:00;100291.75;;;2.54;92.32
41706;BME280;27385;51.096;17.190;2022-11-15T03:26:36;100293.08;;;2.54;92.45
41706;BME280;27385;51.096;17.190;2022-11-15T03:29:11;100291.04;;;2.50;91.81
41706;BME280;27385;51.096;17.190;2022-11-15T03:31:47;100294.98;;;2.45;91.87
41706;BME280;27385;51.096;17.190;2022-11-15T03:34:27;100293.14;;;2.43;91.89
41706;BME280;27385;51.096;17.190;2022-11-15T03:37:00;100291.69;;;2.40;91.57
41706;BME280;27385;51.096;17.190;2022-11-15T03:39:33;100292.92;;;2.37;91.60
41706;BME280;27385;51.096;17.190;2022-11-15T03:42:12;100289.25;;;2.32;91.85
41706;BME280;27385;51.096;17.190;2022-11-15T03:44:54;100290.54;;;2.30;91.76
41706;BME280;27385;51.096;17.190;2022-11-15T03:47:34;100284.11;;;2.29;91.84
41706;BME280;27385;51.096;17.190;2022-11-15T03:50:10;100281.39;;;2.27;91.88
41706;BME280;27385;51.096;17.190;2022-11-15T03:52:43;100278.74;;;2.25;91.90
41706;BME280;27385;51.096;17.190;2022-11-15T03:55:18;100275.15;;;2.25;91.57
41706;BME280;27385;51.096;17.190;2022-11-15T03:57:52;100277.64;;;2.22;91.56
41706;BME280;27385;51.096;17.190;2022-11-15T04:00:24;100271.42;;;2.21;91.86
41706;BME280;27385;51.096;17.190;2022-11-15T04:02:56;100269.61;;;2.21;91.69
41706;BME280;27385;51.096;17.190;2022-11-15T04:05:28;100273.40;;;2.17;91.43
41706;BME280;27385;51.096;17.190;2022-11-15T04:07:59;100277.48;;;2.13;91.44
41706;BME280;27385;51.096;17.190;2022-11-15T04:10:31;100275.73;;;2.10;91.52
41706;BME280;27385;51.096;17.190;2022-11-15T04:13:03;100271.16;;;2.06;91.70
41706;BME280;27385;51.096;17.190;2022-11-15T04:15:35;100270.10;;;2.03;91.47
41706;BME280;27385;51.096;17.190;2022-11-15T04:18:07;100272.92;;;1.99;91.26
41706;BME280;27385;51.096;17.190;2022-11-15T04:20:38;100276.92;;;1.96;91.37
41706;BME280;27385;51.096;17.190;2022-11-15T04:23:27;100276.09;;;1.94;91.65
41706;BME280;27385;51.096;17.190;2022-11-15T04:26:19;100275.48;;;1.92;91.69
41706;BME280;27385;51.096;17.190;2022-11-15T04:28:51;100277.39;;;1.92;91.70
41706;BME280;27385;51.096;17.190;2022-11-15T04:31:55;100273.30;;;1.91;91.70
41706;BME280;27385;51.096;17.190;2022-11-15T04:34:26;100269.88;;;1.90;91.44
41706;BME280;27385;51.096;17.190;2022-11-15T04:36:59;100266.15;;;1.87;91.31
41706;BME280;27385;51.096;17.190;2022-11-15T04:39:46;100263.82;;;1.86;91.46
41706;BME280;27385;51.096;17.190;2022-11-15T04:42:18;100262.65;;;1.85;91.33
41706;BME280;27385;51.096;17.190;2022-11-15T04:44:49;100260.86;;;1.83;91.45
41706;BME280;27385;51.096;17.190;2022-11-15T04:47:20;100257.01;;;1.84;91.54
41706;BME280;27385;51.096;17.190;2022-11-15T04:49:51;100253.84;;;1.85;91.62
41706;BME280;27385;51.096;17.190;2022-11-15T04:52:22;100257.16;;;1.83;91.12
41706;BME280;27385;51.096;17.190;2022-11-15T04:54:54;100259.69;;;1.78;90.90
41706;BME280;27385;51.096;17.190;2022-11-15T04:57:25;100257.39;;;1.74;91.22
41706;BME280;27385;51.096;17.190;2022-11-15T04:59:56;100252.91;;;1.74;91.46
41706;BME280;27385;51.096;17.190;2022-11-15T05:02:30;100248.95;;;1.72;91.42
41706;BME280;27385;51.096;17.190;2022-11-15T05:05:16;100243.42;;;1.68;91.32
41706;BME280;27385;51.096;17.190;2022-11-15T05:07:47;100244.42;;;1.64;90.99
41706;BME280;27385;51.096;17.190;2022-11-15T05:10:19;100244.58;;;1.60;91.08
41706;BME280;27385;51.096;17.190;2022-11-15T05:12:50;100241.33;;;1.57;91.26
41706;BME280;27385;51.096;17.190;2022-11-15T05:15:21;100240.41;;;1.55;91.28
41706;BME280;27385;51.096;17.190;2022-11-15T05:17:58;100242.63;;;1.55;91.32
41706;BME280;27385;51.096;17.190;2022-11-15T05:20:30;100240.14;;;1.53;91.64
41706;BME280;27385;51.096;17.190;2022-11-15T05:23:01;100242.36;;;1.52;91.36
41706;BME280;27385;51.096;17.190;2022-11-15T05:25:33;100240.33;;;1.46;91.28
41706;BME280;27385;51.096;17.190;2022-11-15T05:28:07;100232.87;;;1.40;91.56
41706;BME280;27385;51.096;17.190;2022-11-15T05:30:38;100231.56;;;1.38;91.43
41706;BME280;27385;51.096;17.190;2022-11-15T05:33:10;100229.64;;;1.35;91.46
41706;BME280;27385;51.096;17.190;2022-11-15T05:35:45;100226.12;;;1.35;91.76
41706;BME280;27385;51.096;17.190;2022-11-15T05:38:18;100228.66;;;1.34;91.39
41706;BME280;27385;51.096;17.190;2022-11-15T05:40:49;100227.70;;;1.29;91.15
41706;BME280;27385;51.096;17.190;2022-11-15T05:43:24;100228.36;;;1.27;91.46
41706;BME280;27385;51.096;17.190;2022-11-15T05:45:58;100223.23;;;1.28;91.49
41706;BME280;27385;51.096;17.190;2022-11-15T05:48:33;100226.43;;;1.25;90.88
41706;BME280;27385;51.096;17.190;2022-11-15T05:51:08;100223.13;;;1.21;91.03
41706;BME280;27385;51.096;17.190;2022-11-15T05:53:40;100218.95;;;1.21;91.61
41706;BME280;27385;51.096;17.190;2022-11-15T05:56:12;100220.05;;;1.22;91.67
41706;BME280;27385;51.096;17.190;2022-11-15T05:58:44;100220.66;;;1.17;91.09
41706;BME280;27385;51.096;17.190;2022-11-15T06:01:15;100225.13;;;1.13;91.14
41706;BME280;27385;51.096;17.190;2022-11-15T06:03:47;100225.45;;;1.13;91.61
41706;BME280;27385;51.096;17.190;2022-11-15T06:06:18;100218.16;;;1.12;91.37
41706;BME280;27385;51.096;17.190;2022-11-15T06:08:50;100219.31;;;1.13;91.65
41706;BME280;27385;51.096;17.190;2022-11-15T06:11:21;100220.86;;;1.14;91.36
41706;BME280;27385;51.096;17.190;2022-11-15T06:13:52;100225.15;;;1.12;91.02
41706;BME280;27385;51.096;17.190;2022-11-15T06:16:24;100228.61;;;1.10;91.57
41706;BME280;27385;51.096;17.190;2022-11-15T06:18:55;100230.85;;;1.08;91.78
41706;BME280;27385;51.096;17.190;2022-11-15T06:21:28;100228.32;;;1.05;91.72
41706;BME280;27385;51.096;17.190;2022-11-15T06:23:59;100231.88;;;1.02;91.66
41706;BME280;27385;51.096;17.190;2022-11-15T06:26:31;100231.31;;;1.04;92.00
41706;BME280;27385;51.096;17.190;2022-11-15T06:29:03;100230.11;;;1.06;92.19
41706;BME280;27385;51.096;17.190;2022-11-15T06:31:35;100231.09;;;1.08;92.14
41706;BME280;27385;51.096;17.190;2022-11-15T06:34:06;100234.07;;;1.08;91.88
41706;BME280;27385;51.096;17.190;2022-11-15T06:36:38;100236.86;;;1.06;92.02
41706;BME280;27385;51.096;17.190;2022-11-15T06:39:12;100237.46;;;1.03;92.29
41706;BME280;27385;51.096;17.190;2022-11-15T06:41:43;100236.69;;;1.02;92.38
41706;BME280;27385;51.096;17.190;2022-11-15T06:44:14;100236.98;;;0.98;92.48
41706;BME280;27385;51.096;17.190;2022-11-15T06:46:48;100238.17;;;0.97;92.63
41706;BME280;27385;51.096;17.190;2022-11-15T06:49:20;100236.98;;;0.97;92.69
41706;BME280;27385;51.096;17.190;2022-11-15T06:51:52;100230.06;;;0.98;92.73
41706;BME280;27385;51.096;17.190;2022-11-15T06:54:24;100229.58;;;0.99;92.78
41706;BME280;27385;51.096;17.190;2022-11-15T06:56:57;100229.39;;;1.01;93.14
41706;BME280;27385;51.096;17.190;2022-11-15T06:59:29;100234.84;;;1.03;93.26
41706;BME280;27385;51.096;17.190;2022-11-15T07:02:02;100232.95;;;1.05;93.33
41706;BME280;27385;51.096;17.190;2022-11-15T07:04:33;100229.16;;;1.06;93.32
41706;BME280;27385;51.096;17.190;2022-11-15T07:07:05;100237.31;;;1.07;93.50
41706;BME280;27385;51.096;17.190;2022-11-15T07:09:36;100243.31;;;1.11;93.53
41706;BME280;27385;51.096;17.190;2022-11-15T07:12:08;100256.96;;;1.11;93.75
41706;BME280;27385;51.096;17.190;2022-11-15T07:14:39;100263.48;;;1.06;93.81
41706;BME280;27385;51.096;17.190;2022-11-15T07:17:11;100255.86;;;0.96;93.57
41706;BME280;27385;51.096;17.190;2022-11-15T07:19:45;100254.51;;;0.90;93.77
41706;BME280;27385;51.096;17.190;2022-11-15T07:22:18;100256.02;;;0.89;94.03
41706;BME280;27385;51.096;17.190;2022-11-15T07:24:49;100256.91;;;0.92;94.31
41706;BME280;27385;51.096;17.190;2022-11-15T07:27:21;100260.89;;;0.95;94.40
41706;BME280;27385;51.096;17.190;2022-11-15T07:29:52;100263.38;;;0.97;94.84
41706;BME280;27385;51.096;17.190;2022-11-15T07:32:24;100267.02;;;1.00;95.11
41706;BME280;27385;51.096;17.190;2022-11-15T07:34:56;100262.56;;;1.04;95.10
41706;BME280;27385;51.096;17.190;2022-11-15T07:37:27;100256.92;;;1.09;95.27
41706;BME280;27385;51.096;17.190;2022-11-15T07:39:59;100250.65;;;1.14;95.23
41706;BME280;27385;51.096;17.190;2022-11-15T07:42:32;100248.23;;;1.19;95.21
41706;BME280;27385;51.096;17.190;2022-11-15T07:45:21;100240.99;;;1.24;95.30
41706;BME280;27385;51.096;17.190;2022-11-15T07:47:54;100238.08;;;1.30;95.20
41706;BME280;27385;51.096;17.190;2022-11-15T07:50:27;100239.64;;;1.35;95.47
41706;BME280;27385;51.096;17.190;2022-11-15T07:53:00;100238.92;;;1.40;95.67
41706;BME280;27385;51.096;17.190;2022-11-15T07:55:33;100242.34;;;1.47;96.13
41706;BME280;27385;51.096;17.190;2022-11-15T07:58:06;100243.27;;;1.54;96.54
41706;BME280;27385;51.096;17.190;2022-11-15T08:00:38;100245.19;;;1.61;96.78
41706;BME280;27385;51.096;17.190;2022-11-15T08:03:13;100241.05;;;1.68;96.85
41706;BME280;27385;51.096;17.190;2022-11-15T08:05:52;100241.66;;;1.75;96.72
41706;BME280;27385;51.096;17.190;2022-11-15T08:08:33;100241.22;;;1.82;97.12
41706;BME280;27385;51.096;17.190;2022-11-15T08:11:04;100243.84;;;1.89;97.44
41706;BME280;27385;51.096;17.190;2022-11-15T08:13:36;100244.18;;;1.97;97.56
41706;BME280;27385;51.096;17.190;2022-11-15T08:16:08;100239.12;;;2.02;97.45
41706;BME280;27385;51.096;17.190;2022-11-15T08:18:39;100240.30;;;2.10;97.84
41706;BME280;27385;51.096;17.190;2022-11-15T08:21:14;100238.65;;;2.19;98.04
41706;BME280;27385;51.096;17.190;2022-11-15T08:23:48;100233.72;;;2.26;98.04
41706;BME280;27385;51.096;17.190;2022-11-15T08:26:19;100228.71;;;2.32;98.06
41706;BME280;27385;51.096;17.190;2022-11-15T08:28:51;100225.83;;;2.38;98.10
41706;BME280;27385;51.096;17.190;2022-11-15T08:31:22;100218.71;;;2.44;98.01
41706;BME280;27385;51.096;17.190;2022-11-15T08:33:55;100220.48;;;2.51;98.25
41706;BME280;27385;51.096;17.190;2022-11-15T08:36:26;100221.10;;;2.58;98.51
41706;BME280;27385;51.096;17.190;2022-11-15T08:38:59;100219.66;;;2.67;98.76
41706;BME280;27385;51.096;17.190;2022-11-15T08:41:33;100215.39;;;2.75;99.01
41706;BME280;27385;51.096;17.190;2022-11-15T08:44:06;100211.02;;;2.84;99.18
41706;BME280;27385;51.096;17.190;2022-11-15T08:46:37;100203.85;;;2.91;99.13
41706;BME280;27385;51.096;17.190;2022-11-15T08:49:09;100205.48;;;2.99;99.37
41706;BME280;27385;51.096;17.190;2022-11-15T08:51:41;100207.10;;;3.08;99.59
41706;BME280;27385;51.096;17.190;2022-11-15T08:54:12;100201.55;;;3.16;99.75
41706;BME280;27385;51.096;17.190;2022-11-15T08:56:43;100193.48;;;3.24;99.76
41706;BME280;27385;51.096;17.190;2022-11-15T08:59:14;100190.06;;;3.31;99.79
41706;BME280;27385;51.096;17.190;2022-11-15T09:01:46;100193.79;;;3.40;99.97
41706;BME280;27385;51.096;17.190;2022-11-15T09:04:18;100192.48;;;3.49;100.00
41706;BME280;27385;51.096;17.190;2022-11-15T09:06:50;100188.97;;;3.60;100.00
41706;BME280;27385;51.096;17.190;2022-11-15T09:09:22;100188.21;;;3.70;100.00
41706;BME280;27385;51.096;17.190;2022-11-15T09:11:54;100189.46;;;3.80;100.00
41706;BME280;27385;51.096;17.190;2022-11-15T09:14:27;100192.43;;;3.93;100.00
41706;BME280;27385;51.096;17.190;2022-11-15T09:17:02;100195.69;;;4.04;100.00
41706;BME280;27385;51.096;17.190;2022-11-15T09:19:33;100200.66;;;4.16;100.00
41706;BME280;27385;51.096;17.190;2022-11-15T09:22:07;100200.74;;;4.27;100.00
41706;BME280;27385;51.096;17.190;2022-11-15T09:24:38;100201.90;;;4.39;100.00
41706;BME280;27385;51.096;17.190;2022-11-15T09:27:12;100203.42;;;4.52;100.00
41706;BME280;27385;51.096;17.190;2022-11-15T09:29:44;100203.15;;;4.67;100.00
41706;BME280;27385;51.096;17.190;2022-11-15T09:32:17;100200.70;;;4.79;100.00
41706;BME280;27385;51.096;17.190;2022-11-15T09:34:49;100196.14;;;4.87;100.00
41706;BME280;27385;51.096;17.190;2022-11-15T09:37:23;100188.44;;;4.98;100.00
41706;BME280;27385;51.096;17.190;2022-11-15T09:39:56;100184.86;;;5.09;100.00
41706;BME280;27385;51.096;17.190;2022-11-15T09:42:49;100181.98;;;5.25;100.00
41706;BME280;27385;51.096;17.190;2022-11-15T09:45:31;100173.48;;;5.36;100.00
41706;BME280;27385;51.096;17.190;2022-11-15T09:51:07;100173.48;;;5.62;100.00
41706;BME280;27385;51.096;17.190;2022-11-15T09:53:43;100169.39;;;5.72;100.00
41706;BME280;27385;51.096;17.190;2022-11-15T09:56:22;100166.29;;;5.80;100.00
41706;BME280;27385;51.096;17.190;2022-11-15T09:59:04;100167.54;;;5.90;100.00
41706;BME280;27385;51.096;17.190;2022-11-15T10:01:47;100163.31;;;6.04;100.00
41706;BME280;27385;51.096;17.190;2022-11-15T10:04:22;100159.98;;;6.16;100.00
41706;BME280;27385;51.096;17.190;2022-11-15T10:06:58;100152.48;;;6.26;100.00
41706;BME280;27385;51.096;17.190;2022-11-15T10:09:36;100147.39;;;6.33;100.00
41706;BME280;27385;51.096;17.190;2022-11-15T10:12:10;100147.69;;;6.42;100.00
41706;BME280;27385;51.096;17.190;2022-11-15T10:14:43;100142.10;;;6.49;100.00
41706;BME280;27385;51.096;17.190;2022-11-15T10:17:24;100143.50;;;6.57;100.00
41706;BME280;27385;51.096;17.190;2022-11-15T10:20:05;100138.34;;;6.63;100.00
41706;BME280;27385;51.096;17.190;2022-11-15T10:22:41;100132.67;;;6.68;100.00
41706;BME280;27385;51.096;17.190;2022-11-15T10:25:22;100137.20;;;6.74;100.00
41706;BME280;27385;51.096;17.190;2022-11-15T10:27:57;100134.25;;;6.80;100.00
41706;BME280;27385;51.096;17.190;2022-11-15T10:30:36;100127.66;;;6.86;100.00
41706;BME280;27385;51.096;17.190;2022-11-15T10:33:19;100125.67;;;6.95;100.00
41706;BME280;27385;51.096;17.190;2022-11-15T10:36:18;100122.01;;;7.07;100.00
41706;BME280;27385;51.096;17.190;2022-11-15T10:38:55;100113.25;;;7.19;100.00
41706;BME280;27385;51.096;17.190;2022-11-15T10:41:38;100104.42;;;7.29;100.00
41706;BME280;27385;51.096;17.190;2022-11-15T10:44:24;100102.68;;;7.39;100.00
41706;BME280;27385;51.096;17.190;2022-11-15T10:47:24;100101.22;;;7.51;100.00
41706;BME280;27385;51.096;17.190;2022-11-15T10:49:58;100091.71;;;7.63;100.00
41706;BME280;27385;51.096;17.190;2022-11-15T10:52:31;100087.02;;;7.74;100.00
41706;BME280;27385;51.096;17.190;2022-11-15T10:55:19;100093.89;;;7.87;100.00
41706;BME280;27385;51.096;17.190;2022-11-15T10:57:54;100088.80;;;7.96;100.00
41706;BME280;27385;51.096;17.190;2022-11-15T11:00:32;100089.89;;;8.04;99.92
41706;BME280;27385;51.096;17.190;2022-11-15T11:03:08;100084.90;;;8.09;99.96
41706;BME280;27385;51.096;17.190;2022-11-15T11:06:05;100079.48;;;8.14;99.68
41706;BME280;27385;51.096;17.190;2022-11-15T11:08:37;100078.58;;;8.23;99.73
41706;BME280;27385;51.096;17.190;2022-11-15T11:11:09;100082.96;;;8.31;99.58
41706;BME280;27385;51.096;17.190;2022-11-15T11:13:41;100081.84;;;8.39;99.46
41706;BME280;27385;51.096;17.190;2022-11-15T11:16:44;100079.53;;;8.42;99.29
41706;BME280;27385;51.096;17.190;2022-11-15T11:19:36;100072.16;;;8.45;99.24
41706;BME280;27385;51.096;17.190;2022-11-15T11:22:19;100070.17;;;8.48;99.03
41706;BME280;27385;51.096;17.190;2022-11-15T11:27:55;100068.70;;;8.56;99.06
41706;BME280;27385;51.096;17.190;2022-11-15T11:30:38;100061.88;;;8.60;99.16
41706;BME280;27385;51.096;17.190;2022-11-15T11:33:17;100060.11;;;8.69;98.95
41706;BME280;27385;51.096;17.190;2022-11-15T11:36:02;100052.48;;;8.74;98.83
41706;BME280;27385;51.096;17.190;2022-11-15T11:38:44;100050.98;;;8.75;98.75
41706;BME280;27385;51.096;17.190;2022-11-15T11:41:41;100044.94;;;8.80;98.64
41706;BME280;27385;51.096;17.190;2022-11-15T11:44:28;100044.73;;;8.84;98.42
41706;BME280;27385;51.096;17.190;2022-11-15T11:47:06;100041.88;;;8.90;98.65
41706;BME280;27385;51.096;17.190;2022-11-15T11:49:46;100042.34;;;8.95;98.27
41706;BME280;27385;51.096;17.190;2022-11-15T11:52:24;100037.80;;;9.01;97.84
41706;BME280;27385;51.096;17.190;2022-11-15T11:55:03;100034.38;;;9.06;97.97
41706;BME280;27385;51.096;17.190;2022-11-15T11:57:46;100024.70;;;9.08;97.84
41706;BME280;27385;51.096;17.190;2022-11-15T12:00:22;100025.45;;;9.10;97.74
41706;BME280;27385;51.096;17.190;2022-11-15T12:03:05;100019.27;;;9.13;97.54
41706;BME280;27385;51.096;17.190;2022-11-15T12:05:42;100016.88;;;9.15;97.30
41706;BME280;27385;51.096;17.190;2022-11-15T12:08:27;100013.67;;;9.18;97.00
41706;BME280;27385;51.096;17.190;2022-11-15T12:11:06;100015.54;;;9.25;96.88
41706;BME280;27385;51.096;17.190;2022-11-15T12:13:39;100010.13;;;9.33;96.79
41706;BME280;27385;51.096;17.190;2022-11-15T12:16:17;100007.63;;;9.40;96.62
41706;BME280;27385;51.096;17.190;2022-11-15T12:18:53;100006.48;;;9.43;96.42
41706;BME280;27385;51.096;17.190;2022-11-15T12:21:33;100002.95;;;9.47;95.87
41706;BME280;27385;51.096;17.190;2022-11-15T12:24:08;99999.10;;;9.52;95.60
41706;BME280;27385;51.096;17.190;2022-11-15T12:26:48;99991.86;;;9.55;95.57
41706;BME280;27385;51.096;17.190;2022-11-15T12:29:25;99990.33;;;9.57;95.49
41706;BME280;27385;51.096;17.190;2022-11-15T12:31:59;99986.80;;;9.60;95.22
41706;BME280;27385;51.096;17.190;2022-11-15T12:34:41;99982.27;;;9.66;94.84
41706;BME280;27385;51.096;17.190;2022-11-15T12:40:31;99975.20;;;9.75;94.98
41706;BME280;27385;51.096;17.190;2022-11-15T12:45:50;99968.25;;;9.80;94.81
41706;BME280;27385;51.096;17.190;2022-11-15T12:54:59;99971.05;;;9.90;94.48
41706;BME280;27385;51.096;17.190;2022-11-15T12:57:51;99968.88;;;9.93;94.23
41706;BME280;27385;51.096;17.190;2022-11-15T13:00:45;99965.58;;;9.98;94.31
41706;BME280;27385;51.096;17.190;2022-11-15T13:03:32;99954.50;;;10.04;94.13
41706;BME280;27385;51.096;17.190;2022-11-15T13:06:38;99948.48;;;10.07;94.04
41706;BME280;27385;51.096;17.190;2022-11-15T13:12:25;99941.02;;;10.14;93.85
41706;BME280;27385;51.096;17.190;2022-11-15T13:18:33;99932.90;;;10.17;93.59
41706;BME280;27385;51.096;17.190;2022-11-15T13:21:19;99931.41;;;10.19;93.66
41706;BME280;27385;51.096;17.190;2022-11-15T13:24:18;99929.39;;;10.23;93.50
41706;BME280;27385;51.096;17.190;2022-11-15T13:26:50;99930.17;;;10.25;93.51
41706;BME280;27385;51.096;17.190;2022-11-15T13:29:23;99934.45;;;10.26;93.30
41706;BME280;27385;51.096;17.190;2022-11-15T13:31:55;99927.80;;;10.28;93.24
41706;BME280;27385;51.096;17.190;2022-11-15T13:34:29;99923.16;;;10.30;93.39
41706;BME280;27385;51.096;17.190;2022-11-15T13:37:12;99922.42;;;10.32;93.41
41706;BME280;27385;51.096;17.190;2022-11-15T13:39:44;99921.45;;;10.35;93.39
41706;BME280;27385;51.096;17.190;2022-11-15T13:42:18;99919.27;;;10.38;93.39
41706;BME280;27385;51.096;17.190;2022-11-15T13:44:58;99919.17;;;10.39;93.23
41706;BME280;27385;51.096;17.190;2022-11-15T13:47:31;99921.23;;;10.40;93.12
41706;BME280;27385;51.096;17.190;2022-11-15T13:50:04;99919.92;;;10.40;92.98
41706;BME280;27385;51.096;17.190;2022-11-15T13:52:38;99912.92;;;10.41;92.95
41706;BME280;27385;51.096;17.190;2022-11-15T13:55:16;99915.31;;;10.41;92.91
41706;BME280;27385;51.096;17.190;2022-11-15T13:57:50;99914.21;;;10.43;93.01
41706;BME280;27385;51.096;17.190;2022-11-15T14:00:41;99913.89;;;10.44;92.88
41706;BME280;27385;51.096;17.190;2022-11-15T14:03:18;99915.17;;;10.47;92.82